Time;durP1;ratioP1;P1;durP2;ratioP2;P2;SDS_P1;SDS_P2;PMS_P1;PMS_P2;Temp;Humidity;BMP_temperature;BMP_pressure;BME280_temperature;BME280_humidity;BME280_pressure;Samples;Min_cycle;Max_cycle;Signal;HPM_P1;HPM_P2
2021/11/19 00:01:16;;;;;;;0.33;0.33;;;12.20;99.90;;;;;;5090326;28;20663;-69
2021/11/19 00:03:44;;;;;;;0.87;0.50;;;12.20;99.90;;;;;;5085924;28;20285;-71
2021/11/19 00:06:13;;;;;;;0.40;0.40;;;12.20;99.90;;;;;;5106044;28;20307;-71
2021/11/19 00:08:41;;;;;;;0.30;0.30;;;12.20;99.90;;;;;;5103065;28;20287;-70
2021/11/19 00:11:10;;;;;;;0.30;0.30;;;12.30;99.90;;;;;;5088564;28;20647;-70
2021/11/19 00:13:39;;;;;;;0.30;0.30;;;12.30;99.90;;;;;;5086465;28;20223;-70
2021/11/19 00:16:06;;;;;;;0.40;0.40;;;12.30;99.90;;;;;;5106818;28;20230;-71
2021/11/19 00:18:34;;;;;;;0.30;0.30;;;12.30;99.90;;;;;;5105034;28;20278;-71
2021/11/19 00:21:01;;;;;;;0.30;0.30;;;12.30;99.90;;;;;;5107106;28;20675;-71
2021/11/19 00:23:29;;;;;;;0.47;0.30;;;12.40;99.90;;;;;;5099293;28;20193;-71
2021/11/19 00:25:57;;;;;;;0.30;0.30;;;12.40;99.90;;;;;;5083920;28;20234;-71
2021/11/19 00:28:24;;;;;;;0.30;0.30;;;12.40;99.90;;;;;;5097257;28;20199;-71
2021/11/19 00:30:51;;;;;;;0.30;0.30;;;12.40;99.90;;;;;;5082247;28;20211;-71
2021/11/19 00:33:19;;;;;;;0.20;0.20;;;12.50;99.90;;;;;;5083304;28;20263;-71
2021/11/19 00:35:48;;;;;;;0.33;0.30;;;12.50;99.90;;;;;;5100069;28;20219;-71
2021/11/19 00:38:17;;;;;;;0.37;0.37;;;12.50;99.90;;;;;;5097014;28;20200;-71
2021/11/19 00:40:48;;;;;;;0.30;0.30;;;12.50;99.90;;;;;;5080784;28;20290;-71
2021/11/19 00:43:16;;;;;;;0.37;0.37;;;12.60;99.90;;;;;;5097188;28;20676;-71
2021/11/19 00:45:44;;;;;;;0.57;0.40;;;12.60;99.90;;;;;;5088700;28;20208;-70
2021/11/19 00:48:13;;;;;;;0.37;0.37;;;12.60;99.90;;;;;;5090563;28;20338;-71
2021/11/19 00:50:43;;;;;;;0.20;0.20;;;12.60;99.90;;;;;;5089319;28;20243;-71
2021/11/19 00:53:12;;;;;;;0.30;0.30;;;12.60;99.90;;;;;;5090483;28;20594;-70
2021/11/19 00:55:40;;;;;;;0.20;0.20;;;12.60;99.90;;;;;;5089911;28;20200;-71
2021/11/19 00:58:09;;;;;;;0.20;0.20;;;12.70;99.90;;;;;;5108518;28;20279;-71
2021/11/19 01:00:44;;;;;;;0.30;0.30;;;12.70;99.90;;;;;;5084054;28;20232;-70
2021/11/19 01:03:11;;;;;;;0.43;0.33;;;12.70;99.90;;;;;;5087265;28;20257;-71
2021/11/19 01:05:39;;;;;;;0.53;0.40;;;12.70;99.90;;;;;;5084920;28;20261;-71
2021/11/19 01:08:06;;;;;;;0.47;0.40;;;12.70;99.90;;;;;;5087304;28;20204;-71
2021/11/19 01:10:36;;;;;;;0.20;0.20;;;12.80;99.90;;;;;;5084413;28;20301;-70
2021/11/19 01:13:04;;;;;;;0.73;0.30;;;12.80;99.90;;;;;;5103629;28;20187;-71
2021/11/19 01:15:36;;;;;;;0.20;0.20;;;12.80;99.90;;;;;;5082923;28;20240;-71
2021/11/19 01:18:11;;;;;;;0.40;0.40;;;12.80;99.90;;;;;;5080127;28;20205;-70
2021/11/19 01:20:41;;;;;;;0.30;0.30;;;12.80;99.90;;;;;;5103409;28;20196;-71
2021/11/19 01:23:11;;;;;;;0.90;0.90;;;12.90;99.90;;;;;;5081834;28;20206;-70
2021/11/19 01:25:46;;;;;;;0.90;0.80;;;12.90;99.90;;;;;;5084409;28;20708;-70
2021/11/19 01:28:13;;;;;;;0.43;0.43;;;12.90;99.90;;;;;;5097970;28;20200;-70
2021/11/19 01:30:45;;;;;;;0.40;0.40;;;12.90;99.90;;;;;;5083196;28;20199;-71
2021/11/19 01:33:12;;;;;;;0.30;0.30;;;12.90;99.90;;;;;;5078272;28;20197;-70
2021/11/19 01:35:59;;;;;;;1.87;0.47;;;13.00;99.90;;;;;;5079593;28;20701;-70
2021/11/19 01:38:46;;;;;;;0.40;0.40;;;13.00;99.90;;;;;;5102439;28;20211;-70
2021/11/19 01:41:46;;;;;;;0.30;0.30;;;13.00;99.90;;;;;;5083222;28;20215;-70
2021/11/19 01:44:23;;;;;;;0.40;0.40;;;13.00;99.90;;;;;;5085041;28;20197;-70
2021/11/19 01:46:54;;;;;;;0.40;0.30;;;13.10;99.90;;;;;;5111787;28;20698;-70
2021/11/19 01:49:22;;;;;;;0.30;0.30;;;13.10;99.90;;;;;;5089803;28;20200;-71
2021/11/19 01:51:55;;;;;;;0.20;0.20;;;13.10;99.90;;;;;;5081959;28;20204;-70
2021/11/19 01:54:26;;;;;;;0.77;0.50;;;13.10;99.90;;;;;;5077391;28;20710;-71
2021/11/19 01:56:59;;;;;;;0.20;0.20;;;13.10;99.90;;;;;;5086367;28;20205;-71
2021/11/19 01:59:30;;;;;;;0.50;0.50;;;13.10;99.90;;;;;;5092422;28;20229;-71
2021/11/19 02:02:01;;;;;;;0.40;0.40;;;13.10;99.90;;;;;;5092286;28;20313;-71
2021/11/19 02:04:34;;;;;;;0.83;0.50;;;13.20;99.90;;;;;;5106233;28;20226;-71
2021/11/19 02:07:04;;;;;;;0.50;0.50;;;13.20;99.90;;;;;;5090859;28;20224;-71
2021/11/19 02:10:04;;;;;;;0.40;0.40;;;13.20;99.90;;;;;;5028179;28;20567;-71
2021/11/19 02:12:39;;;;;;;0.83;0.50;;;13.20;99.90;;;;;;5018215;28;21029;-71
2021/11/19 02:15:12;;;;;;;0.80;0.50;;;13.20;99.90;;;;;;5042758;28;20207;-71
2021/11/19 02:17:44;;;;;;;0.63;0.47;;;13.20;99.90;;;;;;5028074;28;20200;-71
2021/11/19 02:20:13;;;;;;;0.30;0.30;;;13.20;99.90;;;;;;5023253;28;20206;-71
2021/11/19 02:22:47;;;;;;;0.77;0.50;;;13.30;99.90;;;;;;5044393;28;20671;-70
2021/11/19 02:25:19;;;;;;;0.40;0.40;;;13.30;99.90;;;;;;5010632;28;20277;-71
2021/11/19 02:27:53;;;;;;;1.70;0.40;;;13.30;99.90;;;;;;5011334;28;20233;-71
2021/11/19 02:30:23;;;;;;;0.37;0.33;;;13.30;99.90;;;;;;5039102;28;20198;-71
2021/11/19 02:33:02;;;;;;;1.63;0.70;;;13.30;99.90;;;;;;5009079;28;20211;-71
2021/11/19 02:35:33;;;;;;;2.43;0.87;;;13.50;99.90;;;;;;5041497;28;20213;-71
2021/11/19 02:38:04;;;;;;;0.50;0.50;;;13.30;99.90;;;;;;5011215;28;20302;-71
2021/11/19 02:40:35;;;;;;;0.50;0.50;;;13.30;99.90;;;;;;5026481;28;20217;-70
2021/11/19 02:43:05;;;;;;;0.87;0.47;;;13.30;99.90;;;;;;5010584;28;20224;-70
2021/11/19 02:45:35;;;;;;;1.37;0.60;;;13.30;99.90;;;;;;5021167;28;20339;-70
2021/11/19 02:48:07;;;;;;;0.40;0.40;;;13.30;99.90;;;;;;5113969;27;20197;-70
2021/11/19 02:50:35;;;;;;;1.57;0.63;;;13.30;99.90;;;;;;5090437;28;20230;-70
2021/11/19 02:53:05;;;;;;;1.77;0.50;;;13.30;99.90;;;;;;5091265;28;20205;-70
2021/11/19 02:55:37;;;;;;;0.83;0.50;;;13.40;99.90;;;;;;5091157;28;20219;-70
2021/11/19 02:58:06;;;;;;;2.07;0.80;;;13.40;99.90;;;;;;5092571;28;20225;-70
2021/11/19 03:00:44;;;;;;;1.10;1.00;;;13.40;99.90;;;;;;5090768;28;20209;-70
2021/11/19 03:03:13;;;;;;;3.00;1.10;;;13.40;99.90;;;;;;5091566;28;20246;-71
2021/11/19 03:05:41;;;;;;;0.93;0.93;;;13.40;99.90;;;;;;5085393;28;20207;-70
2021/11/19 03:08:09;;;;;;;1.63;1.00;;;13.40;99.90;;;;;;5082898;28;20319;-70
2021/11/19 03:10:39;;;;;;;1.33;0.80;;;13.40;99.90;;;;;;5104915;28;20304;-70
2021/11/19 03:13:08;;;;;;;0.67;0.60;;;13.40;99.90;;;;;;5101412;28;20198;-71
2021/11/19 03:15:38;;;;;;;0.70;0.60;;;13.40;99.90;;;;;;5089857;28;20237;-70
2021/11/19 03:18:06;;;;;;;3.33;1.00;;;13.40;99.90;;;;;;5085437;28;20672;-70
2021/11/19 03:20:35;;;;;;;0.70;0.53;;;13.40;99.90;;;;;;5089441;28;20564;-71
2021/11/19 03:23:03;;;;;;;0.80;0.50;;;13.40;99.90;;;;;;5085125;28;20309;-70
2021/11/19 03:25:37;;;;;;;1.30;0.50;;;13.40;99.90;;;;;;5088713;28;20950;-71
2021/11/19 03:28:08;;;;;;;0.87;0.43;;;13.40;99.90;;;;;;5091503;28;20305;-71
2021/11/19 03:30:38;;;;;;;0.30;0.30;;;13.40;99.90;;;;;;5089923;28;20203;-70
2021/11/19 03:33:08;;;;;;;1.23;0.73;;;13.50;99.90;;;;;;5091161;28;20209;-70
2021/11/19 03:35:37;;;;;;;0.50;0.50;;;13.50;99.90;;;;;;5089644;28;20214;-71
2021/11/19 03:38:05;;;;;;;0.60;0.50;;;13.50;99.90;;;;;;5125392;27;20206;-71
2021/11/19 03:40:35;;;;;;;1.07;0.50;;;13.50;99.90;;;;;;5090611;28;20207;-70
2021/11/19 03:43:05;;;;;;;1.30;0.50;;;13.50;99.90;;;;;;5124573;27;20247;-71
2021/11/19 03:45:37;;;;;;;1.23;0.70;;;13.50;99.90;;;;;;5084343;28;20213;-71
2021/11/19 03:48:06;;;;;;;0.50;0.50;;;13.50;99.90;;;;;;5091339;28;20220;-71
2021/11/19 03:50:40;;;;;;;0.93;0.80;;;13.50;99.90;;;;;;5089970;28;20214;-71
2021/11/19 03:53:07;;;;;;;1.47;0.80;;;13.50;99.90;;;;;;5090918;28;20214;-71
2021/11/19 03:55:37;;;;;;;0.83;0.60;;;13.40;99.90;;;;;;5088121;28;20209;-70
2021/11/19 03:58:05;;;;;;;1.10;0.60;;;13.40;99.90;;;;;;5086702;28;20181;-71
2021/11/19 04:00:36;;;;;;;2.13;0.90;;;13.40;99.90;;;;;;5089488;28;20652;-71
2021/11/19 04:03:05;;;;;;;2.80;0.70;;;13.40;99.90;;;;;;5087147;28;20735;-71
2021/11/19 04:05:38;;;;;;;2.47;0.70;;;13.40;99.90;;;;;;5088099;28;20197;-71
2021/11/19 04:08:07;;;;;;;1.47;0.80;;;13.40;99.90;;;;;;5089197;28;20228;-70
2021/11/19 04:10:47;;;;;;;1.17;0.70;;;13.40;99.90;;;;;;5090175;28;20217;-70
2021/11/19 04:13:15;;;;;;;1.50;0.63;;;13.40;99.90;;;;;;5090607;28;20205;-70
2021/11/19 04:15:50;;;;;;;2.70;0.60;;;13.40;99.90;;;;;;5122705;27;20262;-70
2021/11/19 04:18:17;;;;;;;2.27;0.77;;;13.40;99.90;;;;;;5105126;28;20280;-70
2021/11/19 04:20:49;;;;;;;1.17;0.50;;;13.40;99.90;;;;;;5089389;28;20318;-70
2021/11/19 04:23:17;;;;;;;1.03;0.60;;;13.50;99.90;;;;;;5090286;28;20209;-70
2021/11/19 04:25:45;;;;;;;0.80;0.60;;;13.50;99.90;;;;;;5081827;28;20209;-71
2021/11/19 04:28:13;;;;;;;0.70;0.40;;;13.50;99.90;;;;;;5090344;28;20304;-71
2021/11/19 04:30:59;;;;;;;1.27;0.40;;;13.50;99.90;;;;;;5103034;28;20269;-71
2021/11/19 04:33:29;;;;;;;1.03;0.60;;;13.50;99.90;;;;;;5088740;28;20285;-71
2021/11/19 04:35:59;;;;;;;3.03;0.60;;;13.40;99.90;;;;;;5088736;28;20207;-71
2021/11/19 04:38:27;;;;;;;1.57;0.83;;;13.40;99.90;;;;;;5108581;28;20221;-71
2021/11/19 04:40:56;;;;;;;1.13;0.77;;;13.40;99.90;;;;;;5089345;28;20577;-71
2021/11/19 04:43:26;;;;;;;1.07;0.50;;;13.40;99.90;;;;;;5090068;28;20232;-70
2021/11/19 04:45:54;;;;;;;1.07;0.80;;;13.40;99.90;;;;;;5088556;28;20211;-71
2021/11/19 04:48:24;;;;;;;1.50;0.70;;;13.40;99.90;;;;;;5090629;28;20229;-71
2021/11/19 04:50:52;;;;;;;0.70;0.70;;;13.40;99.90;;;;;;5089287;28;20360;-71
2021/11/19 04:53:24;;;;;;;0.60;0.60;;;13.40;99.90;;;;;;5090228;28;20208;-70
2021/11/19 04:55:53;;;;;;;1.60;0.83;;;13.40;99.90;;;;;;5101722;28;20198;-71
2021/11/19 04:58:21;;;;;;;1.17;0.83;;;13.30;99.90;;;;;;5102938;28;20270;-71
2021/11/19 05:00:50;;;;;;;1.63;0.83;;;13.30;99.90;;;;;;5106715;28;20737;-70
2021/11/19 05:03:32;;;;;;;1.10;0.70;;;13.30;99.90;;;;;;5089855;28;20209;-71
2021/11/19 05:05:59;;;;;;;0.53;0.53;;;13.30;99.90;;;;;;5088586;28;20748;-71
2021/11/19 05:08:28;;;;;;;2.07;0.90;;;13.20;99.90;;;;;;5108255;28;20581;-71
2021/11/19 05:10:57;;;;;;;1.90;0.77;;;13.20;99.90;;;;;;5089327;28;20213;-71
2021/11/19 05:13:28;;;;;;;2.00;0.93;;;13.20;99.90;;;;;;5089308;28;20211;-71
2021/11/19 05:16:04;;;;;;;0.57;0.50;;;13.20;99.90;;;;;;5090689;28;20268;-71
2021/11/19 05:18:32;;;;;;;1.13;0.70;;;13.20;99.90;;;;;;5089802;28;20196;-71
2021/11/19 05:21:00;;;;;;;0.70;0.70;;;13.20;99.90;;;;;;5092919;28;20192;-71
2021/11/19 05:23:29;;;;;;;1.40;0.60;;;13.20;99.90;;;;;;5093917;28;20285;-71
2021/11/19 05:25:57;;;;;;;1.50;0.70;;;13.20;99.90;;;;;;5092602;28;20202;-71
2021/11/19 05:28:27;;;;;;;1.13;0.53;;;13.20;99.90;;;;;;5093863;28;20267;-71
2021/11/19 05:30:59;;;;;;;1.53;0.70;;;13.20;99.90;;;;;;5092956;28;20208;-70
2021/11/19 05:33:29;;;;;;;1.83;0.80;;;13.30;99.90;;;;;;5093757;28;20206;-71
2021/11/19 05:35:57;;;;;;;1.30;0.90;;;13.30;99.90;;;;;;5092099;28;20214;-71
2021/11/19 05:38:25;;;;;;;4.60;1.67;;;13.30;99.90;;;;;;5093766;28;20320;-71
2021/11/19 05:40:54;;;;;;;1.80;1.03;;;13.30;99.90;;;;;;5092908;28;20227;-71
2021/11/19 05:43:25;;;;;;;0.97;0.93;;;13.30;99.90;;;;;;5093394;28;20220;-71
2021/11/19 05:46:20;;;;;;;3.00;0.93;;;13.30;99.90;;;;;;5076493;28;20210;-71
2021/11/19 05:48:54;;;;;;;1.83;0.80;;;13.30;99.90;;;;;;5092366;28;20720;-71
2021/11/19 05:51:22;;;;;;;1.83;0.80;;;13.30;99.90;;;;;;5092678;28;20214;-71
2021/11/19 05:53:51;;;;;;;0.67;0.60;;;13.30;99.90;;;;;;5111212;28;20674;-71
2021/11/19 05:56:23;;;;;;;0.83;0.60;;;13.40;99.90;;;;;;5091983;28;20306;-71
2021/11/19 05:58:50;;;;;;;1.10;0.60;;;13.40;99.90;;;;;;5091774;28;20203;-70
2021/11/19 06:01:28;;;;;;;1.10;0.70;;;13.40;99.90;;;;;;5091671;28;20540;-71
2021/11/19 06:04:04;;;;;;;3.80;1.27;;;13.40;99.90;;;;;;5091304;28;20201;-70
2021/11/19 06:07:04;;;;;;;1.37;0.80;;;13.50;99.90;;;;;;5027428;28;20524;-71
2021/11/19 06:09:58;;;;;;;2.63;1.07;;;13.50;99.90;;;;;;5024787;28;20222;-71
2021/11/19 06:12:30;;;;;;;2.43;0.70;;;13.50;99.90;;;;;;5044579;28;20254;-71
2021/11/19 06:15:01;;;;;;;2.63;1.00;;;13.50;99.90;;;;;;5009588;28;20233;-70
2021/11/19 06:17:31;;;;;;;2.13;0.70;;;13.50;99.90;;;;;;5010733;28;20320;-70
2021/11/19 06:20:02;;;;;;;2.43;0.90;;;13.60;99.90;;;;;;5023030;28;20706;-71
2021/11/19 06:22:34;;;;;;;0.97;0.70;;;13.60;99.90;;;;;;5044495;28;20443;-71
2021/11/19 06:25:02;;;;;;;2.17;0.80;;;13.60;99.90;;;;;;5043720;28;20213;-71
2021/11/19 06:27:36;;;;;;;0.83;0.60;;;13.60;99.90;;;;;;5010447;28;20229;-71
2021/11/19 06:30:06;;;;;;;1.97;0.70;;;13.60;99.90;;;;;;5026721;28;20212;-71
2021/11/19 06:32:34;;;;;;;2.37;0.70;;;13.70;99.90;;;;;;5011748;28;20582;-71
2021/11/19 06:35:02;;;;;;;1.37;0.80;;;13.60;99.90;;;;;;5043552;28;20549;-71
2021/11/19 06:37:29;;;;;;;0.50;0.40;;;13.60;99.90;;;;;;5010883;28;20297;-72
2021/11/19 06:40:05;;;;;;;0.83;0.60;;;13.60;99.90;;;;;;5044167;28;20221;-71
2021/11/19 06:43:04;;;;;;;0.83;0.50;;;13.70;99.90;;;;;;4992836;28;20210;-71
2021/11/19 06:45:50;;;;;;;0.97;0.50;;;13.70;99.90;;;;;;5025905;28;20309;-71
2021/11/19 06:48:27;;;;;;;0.77;0.57;;;13.70;99.90;;;;;;5011241;28;20225;-71
2021/11/19 06:51:10;;;;;;;0.63;0.47;;;13.70;99.90;;;;;;4999221;28;20210;-70
2021/11/19 06:53:54;;;;;;;0.40;0.40;;;13.70;99.90;;;;;;5010729;28;20661;-71
2021/11/19 06:56:53;;;;;;;0.60;0.60;;;13.80;99.90;;;;;;4984164;28;20205;-71
2021/11/19 06:59:40;;;;;;;1.03;0.57;;;13.80;99.90;;;;;;4961515;28;20712;-71
2021/11/19 07:02:10;;;;;;;0.93;0.60;;;13.80;99.90;;;;;;4978467;28;20693;-71
2021/11/19 07:04:37;;;;;;;0.50;0.50;;;13.80;99.90;;;;;;4978043;28;20339;-71
2021/11/19 07:07:07;;;;;;;1.67;0.50;;;13.80;99.90;;;;;;4966888;28;20213;-71
2021/11/19 07:09:35;;;;;;;0.53;0.40;;;13.80;99.90;;;;;;4970693;28;20668;-71
2021/11/19 07:12:02;;;;;;;0.43;0.40;;;13.80;99.90;;;;;;4968359;28;20261;-71
2021/11/19 07:14:34;;;;;;;0.53;0.50;;;13.90;99.90;;;;;;4960278;28;20331;-71
2021/11/19 07:17:05;;;;;;;0.67;0.67;;;13.90;99.90;;;;;;4963831;28;20682;-71
2021/11/19 07:19:33;;;;;;;0.50;0.50;;;13.90;99.90;;;;;;4977724;28;20209;-71
2021/11/19 07:22:01;;;;;;;0.60;0.60;;;13.90;99.90;;;;;;5009790;28;20210;-71
2021/11/19 07:24:28;;;;;;;1.30;0.60;;;13.90;99.90;;;;;;5007702;28;20303;-71
2021/11/19 07:27:00;;;;;;;0.70;0.70;;;13.90;99.90;;;;;;5009150;28;20209;-71
2021/11/19 07:29:28;;;;;;;1.13;0.85;;;13.90;99.90;;;;;;4999088;28;20528;-70
2021/11/19 07:31:55;;;;;;;2.23;0.80;;;13.90;99.90;;;;;;5035551;28;20228;-71
2021/11/19 07:34:46;;;;;;;0.90;0.90;;;13.90;99.90;;;;;;5006194;28;20525;-71
2021/11/19 07:37:28;;;;;;;0.67;0.67;;;14.00;99.90;;;;;;4999540;28;20533;-71
2021/11/19 07:40:36;;;;;;;0.67;0.67;;;14.10;99.90;;;;;;4963003;28;20207;-70
2021/11/19 07:43:28;;;;;;;1.27;0.70;;;14.10;99.90;;;;;;4960744;28;20222;-71
2021/11/19 07:46:20;;;;;;;0.73;0.50;;;14.10;99.90;;;;;;4940533;28;20319;-70
2021/11/19 07:48:52;;;;;;;0.50;0.50;;;14.10;99.90;;;;;;4944187;28;20223;-70
2021/11/19 07:51:27;;;;;;;1.03;0.80;;;14.10;99.90;;;;;;4943050;28;20576;-70
2021/11/19 07:53:54;;;;;;;0.70;0.70;;;14.10;99.90;;;;;;4947429;28;20219;-71
2021/11/19 07:56:29;;;;;;;0.50;0.50;;;14.10;99.90;;;;;;4945970;28;20697;-71
2021/11/19 07:58:57;;;;;;;1.80;0.60;;;14.10;99.90;;;;;;4956594;28;21074;-68
2021/11/19 08:01:25;;;;;;;0.67;0.67;;;14.10;99.90;;;;;;4943362;28;20220;-68
2021/11/19 08:03:52;;;;;;;0.83;0.73;;;14.10;99.90;;;;;;4956516;28;20200;-69
2021/11/19 08:06:22;;;;;;;0.50;0.50;;;14.10;99.90;;;;;;4949046;28;20546;-70
2021/11/19 08:08:55;;;;;;;0.80;0.50;;;14.00;99.90;;;;;;4938242;28;20231;-69
2021/11/19 08:11:22;;;;;;;0.70;0.70;;;14.10;99.90;;;;;;4991135;28;20205;-69
2021/11/19 08:13:51;;;;;;;1.47;0.93;;;14.10;99.90;;;;;;5083469;28;20607;-69
2021/11/19 08:16:19;;;;;;;0.90;0.87;;;14.10;99.90;;;;;;5081004;28;20257;-69
2021/11/19 08:19:24;;;;;;;0.90;0.80;;;14.00;99.90;;;;;;5080247;28;20202;-69
2021/11/19 08:21:54;;;;;;;0.60;0.60;;;14.10;99.90;;;;;;5080870;28;20648;-69
2021/11/19 08:24:23;;;;;;;0.60;0.60;;;14.10;99.90;;;;;;5099778;28;20187;-69
2021/11/19 08:26:53;;;;;;;0.90;0.90;;;14.10;99.90;;;;;;5083196;28;20288;-69
2021/11/19 08:29:23;;;;;;;0.80;0.80;;;14.10;99.90;;;;;;5096346;28;20225;-68
2021/11/19 08:31:50;;;;;;;0.60;0.60;;;14.10;99.90;;;;;;5103344;28;20259;-68
2021/11/19 08:34:19;;;;;;;1.43;0.80;;;14.30;99.90;;;;;;5096921;28;21189;-69
2021/11/19 08:36:46;;;;;;;0.70;0.70;;;14.10;99.90;;;;;;5081398;28;20207;-69
2021/11/19 08:39:16;;;;;;;0.67;0.67;;;14.10;99.90;;;;;;5099038;28;20380;-68
2021/11/19 08:41:45;;;;;;;0.87;0.87;;;14.20;99.90;;;;;;5101341;28;20198;-68
2021/11/19 08:44:13;;;;;;;1.60;1.50;;;14.20;99.90;;;;;;5093935;28;20195;-68
2021/11/19 08:46:43;;;;;;;1.60;1.40;;;14.30;99.90;;;;;;5102932;28;20842;-69
2021/11/19 08:49:13;;;;;;;1.40;1.10;;;14.40;99.90;;;;;;5101022;28;20745;-69
2021/11/19 08:51:41;;;;;;;1.55;1.30;;;14.50;99.90;;;;;;5107828;28;20422;-68
2021/11/19 08:54:09;;;;;;;1.00;1.00;;;14.50;99.90;;;;;;5087808;28;20442;-69
2021/11/19 08:56:39;;;;;;;0.87;0.80;;;14.50;99.90;;;;;;5089502;28;20200;-73
2021/11/19 08:59:10;;;;;;;0.90;0.90;;;14.60;99.90;;;;;;5084052;28;20378;-69
2021/11/19 09:01:39;;;;;;;2.37;1.07;;;14.70;99.90;;;;;;5086513;28;20576;-69
2021/11/19 09:04:06;;;;;;;0.80;0.70;;;14.70;99.90;;;;;;5106607;28;20227;-68
2021/11/19 09:06:34;;;;;;;1.97;0.90;;;14.80;99.90;;;;;;5108325;28;20218;-68
2021/11/19 09:09:01;;;;;;;0.90;0.80;;;14.80;99.90;;;;;;5117482;27;20583;-69
2021/11/19 09:11:28;;;;;;;0.63;0.63;;;14.80;99.90;;;;;;5107136;27;20463;-68
2021/11/19 09:13:56;;;;;;;0.80;0.70;;;14.90;99.90;;;;;;5107071;28;20207;-69
2021/11/19 09:16:29;;;;;;;0.97;0.70;;;15.10;99.90;;;;;;5083936;28;20235;-69
2021/11/19 09:19:11;;;;;;;0.60;0.60;;;15.20;99.90;;;;;;5102524;28;20470;-69
2021/11/19 09:21:44;;;;;;;2.87;0.97;;;15.40;99.90;;;;;;5101454;28;20707;-69
2021/11/19 09:24:14;;;;;;;0.60;0.50;;;15.50;99.90;;;;;;5102962;28;20719;-69
2021/11/19 09:26:43;;;;;;;0.50;0.40;;;15.60;99.90;;;;;;5075267;28;20715;-69
2021/11/19 09:29:14;;;;;;;0.97;0.60;;;15.50;99.90;;;;;;5092159;28;20212;-70
2021/11/19 09:31:44;;;;;;;0.40;0.40;;;15.50;99.90;;;;;;5123557;27;20200;-69
2021/11/19 09:34:12;;;;;;;1.03;0.43;;;15.40;99.90;;;;;;5086234;28;20252;-68
2021/11/19 09:36:41;;;;;;;0.73;0.73;;;15.30;99.90;;;;;;5120447;27;20204;-69
2021/11/19 09:39:10;;;;;;;0.50;0.50;;;15.30;99.90;;;;;;5097584;28;20192;-69
2021/11/19 09:41:50;;;;;;;0.60;0.60;;;15.30;99.90;;;;;;5097611;28;20203;-69
2021/11/19 09:45:05;;;;;;;1.93;1.13;;;15.30;99.90;;;;;;5088485;28;20206;-69
2021/11/19 09:48:03;;;;;;;0.90;0.90;;;15.30;99.90;;;;;;5089313;28;21022;-69
2021/11/19 09:51:03;;;;;;;2.30;0.90;;;15.30;99.90;;;;;;5081794;28;20302;-69
2021/11/19 09:54:12;;;;;;;1.47;0.70;;;15.30;99.90;;;;;;5088839;28;20199;-69
2021/11/19 09:56:57;;;;;;;1.57;1.10;;;15.30;99.90;;;;;;5104367;28;20220;-68
2021/11/19 09:59:32;;;;;;;1.90;1.00;;;15.30;99.90;;;;;;5101906;28;20551;-69
2021/11/19 10:02:31;;;;;;;1.50;0.83;;;15.30;99.90;;;;;;5121190;27;20225;-68
2021/11/19 10:05:35;;;;;;;2.07;0.83;;;15.40;99.90;;;;;;5103268;28;20291;-69
2021/11/19 10:08:22;;;;;;;0.80;0.80;;;15.50;99.90;;;;;;5101401;28;20238;-69
2021/11/19 10:11:11;;;;;;;1.27;0.90;;;15.50;99.90;;;;;;5100295;28;20196;-69
2021/11/19 10:14:00;;;;;;;1.00;0.70;;;15.60;99.90;;;;;;5085662;28;20204;-68
2021/11/19 10:16:37;;;;;;;0.93;0.83;;;15.60;99.90;;;;;;5084284;28;20236;-69
2021/11/19 10:19:08;;;;;;;1.63;0.70;;;15.70;99.90;;;;;;5123044;27;20222;-68
2021/11/19 10:21:40;;;;;;;1.30;0.70;;;15.70;99.90;;;;;;5116389;27;20553;-69
2021/11/19 10:24:21;;;;;;;0.97;0.87;;;15.70;99.90;;;;;;5107331;28;20196;-68
2021/11/19 10:26:49;;;;;;;0.73;0.70;;;15.60;99.90;;;;;;5082665;28;20697;-69
2021/11/19 10:29:22;;;;;;;1.47;1.00;;;15.50;99.90;;;;;;5092015;28;20303;-69
2021/11/19 10:31:51;;;;;;;0.70;0.67;;;15.50;99.90;;;;;;5086915;28;20533;-69
2021/11/19 10:34:27;;;;;;;0.57;0.50;;;15.40;99.90;;;;;;5103669;28;20785;-69
2021/11/19 10:37:03;;;;;;;1.60;0.83;;;15.40;99.90;;;;;;5078130;28;20715;-69
2021/11/19 10:39:59;;;;;;;0.90;0.90;;;15.40;99.90;;;;;;5101538;28;20770;-69
2021/11/19 10:43:09;;;;;;;1.20;0.90;;;15.40;99.90;;;;;;5086289;28;20187;-68
2021/11/19 10:45:57;;;;;;;5.00;1.23;;;15.30;99.90;;;;;;5097041;28;20283;-72
2021/11/19 10:49:00;;;;;;;0.83;0.70;;;15.30;99.90;;;;;;5075868;28;20203;-68
2021/11/19 10:51:57;;;;;;;5.03;1.10;;;15.20;99.90;;;;;;5105432;28;20215;-68
2021/11/19 10:55:05;;;;;;;1.20;0.80;;;15.20;99.90;;;;;;5083671;28;20419;-68
2021/11/19 10:57:54;;;;;;;2.80;1.30;;;15.20;99.90;;;;;;5102576;28;20199;-72
2021/11/19 11:00:33;;;;;;;1.80;1.00;;;15.20;99.90;;;;;;5102685;28;20750;-70
2021/11/19 11:03:09;;;;;;;5.20;1.23;;;15.20;99.90;;;;;;5085265;28;20282;-71
2021/11/19 11:05:37;;;;;;;1.03;0.93;;;15.20;99.90;;;;;;5097624;28;20407;-71
2021/11/19 11:08:13;;;;;;;2.10;1.33;;;15.20;99.90;;;;;;5104936;28;20723;-71
2021/11/19 11:10:46;;;;;;;1.10;1.00;;;15.10;99.90;;;;;;5101486;28;21190;-71
2021/11/19 11:13:29;;;;;;;1.47;1.13;;;15.10;99.90;;;;;;5082162;28;20290;-70
2021/11/19 11:16:00;;;;;;;4.13;1.33;;;15.10;99.90;;;;;;5083963;28;20715;-70
2021/11/19 11:18:30;;;;;;;1.33;0.80;;;15.10;99.90;;;;;;5085812;28;20290;-70
2021/11/19 11:21:21;;;;;;;3.00;1.47;;;15.10;99.90;;;;;;5080313;28;20224;-71
2021/11/19 11:23:59;;;;;;;2.67;1.10;;;15.20;99.90;;;;;;5102541;28;20555;-71
2021/11/19 11:26:36;;;;;;;2.20;1.20;;;15.20;99.90;;;;;;5101132;28;20278;-71
2021/11/19 11:29:29;;;;;;;3.93;1.60;;;15.20;99.90;;;;;;5078078;28;20553;-71
2021/11/19 11:32:03;;;;;;;3.13;1.37;;;15.20;99.90;;;;;;5083652;28;20279;-69
2021/11/19 11:34:32;;;;;;;4.27;1.20;;;15.30;99.90;;;;;;5078055;28;20286;-69
2021/11/19 11:37:12;;;;;;;3.93;1.57;;;15.30;99.90;;;;;;5104909;28;20199;-68
2021/11/19 11:39:42;;;;;;;2.53;1.30;;;15.30;99.90;;;;;;5104376;28;20393;-70
2021/11/19 11:42:14;;;;;;;3.83;1.50;;;15.30;99.90;;;;;;5105501;28;20195;-73
2021/11/19 11:44:46;;;;;;;6.57;1.60;;;15.40;99.90;;;;;;5112222;27;20220;-73
2021/11/19 11:47:18;;;;;;;5.17;1.80;;;15.50;99.90;;;;;;5086416;28;20605;-73
2021/11/19 11:49:50;;;;;;;6.30;1.90;;;15.50;99.90;;;;;;5099560;28;20246;-72
2021/11/19 11:52:53;;;;;;;7.67;1.70;;;15.60;99.90;;;;;;5088124;28;20286;-73
2021/11/19 11:55:26;;;;;;;5.83;1.80;;;15.70;99.90;;;;;;5084978;28;20318;-73
2021/11/19 11:58:03;;;;;;;5.60;1.90;;;15.80;99.90;;;;;;5085900;28;20227;-73
2021/11/19 12:00:36;;;;;;;7.97;2.23;;;15.80;99.90;;;;;;5085212;28;20260;-73
2021/11/19 12:03:27;;;;;;;5.30;1.90;;;15.80;99.90;;;;;;5085071;28;20207;-73
2021/11/19 12:06:00;;;;;;;11.87;3.00;;;15.80;99.90;;;;;;5097054;28;20204;-70
2021/11/19 12:09:02;;;;;;;7.53;2.23;;;15.80;99.90;;;;;;5086649;28;20532;-70
2021/11/19 12:12:06;;;;;;;7.70;1.87;;;15.80;99.90;;;;;;5019636;28;21104;-70
2021/11/19 12:14:47;;;;;;;7.17;2.20;;;15.90;99.90;;;;;;5034109;28;20763;-69
2021/11/19 12:17:25;;;;;;;6.23;1.90;;;15.90;99.90;;;;;;5017946;28;20244;-70
2021/11/19 12:19:58;;;;;;;6.57;1.90;;;15.90;99.90;;;;;;5018792;28;20792;-71
2021/11/19 12:22:34;;;;;;;7.67;2.13;;;16.00;99.90;;;;;;5030827;28;20288;-70
2021/11/19 12:25:30;;;;;;;7.57;2.10;;;16.00;99.90;;;;;;5036178;28;20197;-69
2021/11/19 12:27:59;;;;;;;10.53;2.63;;;16.10;99.90;;;;;;4937650;29;20722;-70
2021/11/19 12:30:31;;;;;;;6.73;2.30;;;16.20;99.90;;;;;;4918448;29;20353;-70
2021/11/19 12:33:06;;;;;;;8.40;2.20;;;16.20;99.90;;;;;;4933966;29;20218;-70
2021/11/19 12:35:38;;;;;;;8.07;1.93;;;16.10;99.90;;;;;;4939895;29;20686;-70
2021/11/19 12:38:09;;;;;;;6.43;1.87;;;16.10;99.90;;;;;;4939861;28;20224;-70
2021/11/19 12:40:45;;;;;;;8.67;2.20;;;16.00;99.90;;;;;;4938234;29;20439;-70
2021/11/19 12:43:41;;;;;;;7.50;1.97;;;16.00;99.90;;;;;;4937857;29;20325;-70
2021/11/19 12:46:23;;;;;;;6.83;1.97;;;16.00;99.90;;;;;;4850451;29;20416;-70
2021/11/19 12:49:25;;;;;;;6.07;1.73;;;15.90;99.90;;;;;;4890993;29;20205;-70
2021/11/19 12:51:58;;;;;;;8.17;2.23;;;15.90;99.90;;;;;;4878666;29;20739;-67
2021/11/19 12:54:40;;;;;;;11.87;2.43;;;15.90;99.90;;;;;;4884573;29;20279;-70
2021/11/19 12:57:29;;;;;;;8.30;2.20;;;15.80;99.90;;;;;;4886258;29;20212;-70
2021/11/19 13:00:05;;;;;;;3.28;1.60;;;15.70;99.90;;;;;;4880365;29;20783;-70
2021/11/19 13:02:35;;;;;;;6.07;2.07;;;15.70;99.90;;;;;;4881627;29;20293;-70
2021/11/19 13:05:18;;;;;;;8.87;1.83;;;15.70;99.90;;;;;;4922021;29;20774;-70
2021/11/19 13:08:00;;;;;;;8.43;2.23;;;15.70;99.90;;;;;;4924325;29;20641;-70
2021/11/19 13:10:59;;;;;;;4.53;1.50;;;15.80;99.90;;;;;;4942753;29;20233;-70
2021/11/19 13:13:33;;;;;;;9.20;2.30;;;15.80;99.90;;;;;;4867801;29;20204;-70
2021/11/19 13:16:27;;;;;;;4.30;1.67;;;15.80;99.90;;;;;;4850371;29;20228;-70
2021/11/19 13:18:55;;;;;;;3.13;1.47;;;15.80;99.90;;;;;;4862125;29;20213;-70
2021/11/19 13:21:49;;;;;;;7.20;2.30;;;15.70;99.90;;;;;;4850141;29;20232;-71
2021/11/19 13:24:43;;;;;;;3.63;2.17;;;15.60;99.90;;;;;;4920797;29;20241;-70